createdAt,value
2022-10-22T00:00:12.591Z,101285.53
2022-10-22T00:02:40.285Z,101280.31
2022-10-22T00:05:07.480Z,101280.22
2022-10-22T00:07:34.354Z,101266.22
2022-10-22T00:10:01.401Z,101278.38
2022-10-22T00:12:28.459Z,101272.38
2022-10-22T00:14:55.294Z,101284.41
2022-10-22T00:17:21.954Z,101284.22
2022-10-22T00:19:48.599Z,101277.31
2022-10-22T00:22:15.863Z,101270.34
2022-10-22T00:24:43.266Z,101284.34
2022-10-22T00:27:12.137Z,101281.72
2022-10-22T00:29:38.720Z,101275.56
2022-10-22T00:32:06.092Z,101284.94
2022-10-22T00:34:33.842Z,101282.25
2022-10-22T00:37:00.672Z,101254.13
2022-10-22T00:39:28.874Z,101281.34
2022-10-22T00:41:57.239Z,101276.97
2022-10-22T00:45:02.426Z,101282.25
2022-10-22T00:47:34.209Z,101292.53
2022-10-22T00:52:34.148Z,101286.38
2022-10-22T00:55:01.525Z,101282.03
2022-10-22T00:57:28.776Z,101284.47
2022-10-22T00:59:58.235Z,101272.16
2022-10-22T01:02:24.904Z,101289.44
2022-10-22T01:04:51.503Z,101299.00
2022-10-22T01:07:21.549Z,101300.72
2022-10-22T01:09:59.869Z,101303.22
2022-10-22T01:12:40.653Z,101292.63
2022-10-22T01:15:25.995Z,101304.81
2022-10-22T01:18:02.271Z,101304.81
2022-10-22T01:20:37.828Z,101308.22
2022-10-22T01:23:17.133Z,101312.53
2022-10-22T01:25:57.195Z,101309.81
2022-10-22T01:28:53.631Z,101320.09
2022-10-22T01:31:22.472Z,101306.78
2022-10-22T01:33:51.493Z,101319.91
2022-10-22T01:36:20.152Z,101318.06
2022-10-22T01:38:48.173Z,101310.94
2022-10-22T01:41:15.230Z,101288.97
2022-10-22T01:43:42.605Z,101306.28
2022-10-22T01:46:11.642Z,101295.13
2022-10-22T01:48:54.863Z,101328.47
2022-10-22T01:51:38.361Z,101313.56
2022-10-22T01:54:31.103Z,101311.78
2022-10-22T01:57:22.263Z,101328.31
2022-10-22T02:00:14.479Z,101321.31
2022-10-22T02:02:43.932Z,101322.81
2022-10-22T02:05:14.134Z,101320.19
2022-10-22T02:07:48.061Z,101298.75
2022-10-22T02:10:17.218Z,101344.25
2022-10-22T02:12:49.244Z,101312.81
2022-10-22T02:15:18.937Z,101331.97
2022-10-22T02:17:47.176Z,101342.47
2022-10-22T02:20:19.505Z,101342.50
2022-10-22T02:22:47.204Z,101343.44
2022-10-22T02:25:14.531Z,101329.81
2022-10-22T02:27:55.318Z,101353.66
2022-10-22T02:30:23.237Z,101352.78
2022-10-22T02:32:49.743Z,101351.94
2022-10-22T02:35:22.274Z,101350.13
2022-10-22T02:37:50.642Z,101358.75
2022-10-22T02:40:18.301Z,101363.91
2022-10-22T02:42:50.833Z,101342.91
2022-10-22T02:45:20.689Z,101356.06
2022-10-22T02:47:47.411Z,101362.06
2022-10-22T02:50:14.135Z,101355.06
2022-10-22T02:52:41.042Z,101367.13
2022-10-22T02:55:08.348Z,101340.91
2022-10-22T02:57:36.794Z,101350.41
2022-10-22T03:00:05.649Z,101345.19
2022-10-22T03:02:32.211Z,101356.66
2022-10-22T03:04:59.596Z,101353.97
2022-10-22T03:07:26.277Z,101363.31
2022-10-22T03:09:53.092Z,101368.56
2022-10-22T03:12:20.513Z,101362.38
2022-10-22T03:14:47.088Z,101365.75
2022-10-22T03:17:14.086Z,101362.22
2022-10-22T03:19:40.864Z,101355.16
2022-10-22T03:22:14.069Z,101357.72
2022-10-22T03:24:44.378Z,101370.03
2022-10-22T03:27:13.119Z,101365.63
2022-10-22T03:29:41.316Z,101370.69
2022-10-22T03:32:08.088Z,101365.63
2022-10-22T03:34:34.927Z,101368.22
2022-10-22T03:37:02.513Z,101355.78
2022-10-22T03:39:31.875Z,101374.09
2022-10-22T03:41:58.656Z,101378.41
2022-10-22T03:44:26.077Z,101376.69
2022-10-22T03:46:54.843Z,101379.22
2022-10-22T03:49:24.035Z,101380.94
2022-10-22T03:51:50.712Z,101379.97
2022-10-22T03:54:17.467Z,101388.69
2022-10-22T03:56:44.114Z,101380.84
2022-10-22T03:59:10.733Z,101380.09
2022-10-22T04:01:37.418Z,101380.09
2022-10-22T04:04:04.140Z,101385.25
2022-10-22T04:06:31.178Z,101378.25
2022-10-22T04:08:57.886Z,101380.78
2022-10-22T04:11:24.532Z,101385.09
2022-10-22T04:13:51.126Z,101387.72
2022-10-22T04:16:21.812Z,101402.56
2022-10-22T04:18:50.166Z,101388.63
2022-10-22T04:21:18.820Z,101391.13
2022-10-22T04:23:52.003Z,101412.16
2022-10-22T04:26:19.611Z,101411.34
2022-10-22T04:28:47.830Z,101408.09
2022-10-22T04:31:23.097Z,101409.09
2022-10-22T04:33:55.815Z,101394.44
2022-10-22T04:36:24.991Z,101402.44
2022-10-22T04:38:56.915Z,101405.88
2022-10-22T04:41:28.520Z,101401.84
2022-10-22T04:43:56.232Z,101394.09
2022-10-22T04:46:23.913Z,101395.31
2022-10-22T04:48:51.757Z,101395.53
2022-10-22T04:51:20.482Z,101387.75
2022-10-22T04:53:47.543Z,101397.47
2022-10-22T04:56:27.327Z,101411.66
2022-10-22T04:58:57.870Z,101409.06
2022-10-22T05:01:29.755Z,101410.16
2022-10-22T05:03:58.461Z,101424.22
2022-10-22T05:06:25.988Z,101423.53
2022-10-22T05:08:58.598Z,101425.38
2022-10-22T05:11:28.585Z,101424.53
2022-10-22T05:14:00.759Z,101420.31
2022-10-22T05:16:29.422Z,101434.41
